sensor_id;sensor_type;location;lat;lon;timestamp;P1;durP1;ratioP1;P2;durP2;ratioP2
38783;SDS011;24531;45.502;12.238;2023-01-19T00:00:35;82.53;;;40.15;;
38783;SDS011;24531;45.502;12.238;2023-01-19T00:03:02;69.35;;;35.00;;
38783;SDS011;24531;45.502;12.238;2023-01-19T00:05:28;110.20;;;50.50;;
38783;SDS011;24531;45.502;12.238;2023-01-19T00:07:55;107.38;;;48.80;;
38783;SDS011;24531;45.502;12.238;2023-01-19T00:10:20;163.45;;;64.55;;
38783;SDS011;24531;45.502;12.238;2023-01-19T00:12:46;146.75;;;60.28;;
38783;SDS011;24531;45.502;12.238;2023-01-19T00:15:12;218.85;;;94.43;;
38783;SDS011;24531;45.502;12.238;2023-01-19T00:17:37;106.97;;;45.08;;
38783;SDS011;24531;45.502;12.238;2023-01-19T00:20:05;155.02;;;63.05;;
38783;SDS011;24531;45.502;12.238;2023-01-19T00:22:31;113.50;;;51.58;;
38783;SDS011;24531;45.502;12.238;2023-01-19T00:24:57;106.10;;;47.42;;
38783;SDS011;24531;45.502;12.238;2023-01-19T00:27:23;70.43;;;34.40;;
38783;SDS011;24531;45.502;12.238;2023-01-19T00:29:48;67.80;;;33.03;;
38783;SDS011;24531;45.502;12.238;2023-01-19T00:32:14;51.50;;;28.92;;
38783;SDS011;24531;45.502;12.238;2023-01-19T00:34:41;43.72;;;26.90;;
38783;SDS011;24531;45.502;12.238;2023-01-19T00:37:14;42.57;;;27.33;;
38783;SDS011;24531;45.502;12.238;2023-01-19T00:39:41;88.40;;;44.85;;
38783;SDS011;24531;45.502;12.238;2023-01-19T00:42:07;71.10;;;34.70;;
38783;SDS011;24531;45.502;12.238;2023-01-19T00:44:55;50.40;;;28.23;;
38783;SDS011;24531;45.502;12.238;2023-01-19T00:47:21;45.80;;;26.98;;
38783;SDS011;24531;45.502;12.238;2023-01-19T00:49:47;44.55;;;27.38;;
38783;SDS011;24531;45.502;12.238;2023-01-19T00:52:12;44.58;;;28.63;;
38783;SDS011;24531;45.502;12.238;2023-01-19T00:54:38;39.78;;;24.98;;
38783;SDS011;24531;45.502;12.238;2023-01-19T00:57:04;41.30;;;26.27;;
38783;SDS011;24531;45.502;12.238;2023-01-19T00:59:29;39.55;;;24.98;;
38783;SDS011;24531;45.502;12.238;2023-01-19T01:01:55;39.13;;;24.17;;
38783;SDS011;24531;45.502;12.238;2023-01-19T01:04:21;37.03;;;23.85;;
38783;SDS011;24531;45.502;12.238;2023-01-19T01:06:46;38.80;;;24.38;;
38783;SDS011;24531;45.502;12.238;2023-01-19T01:09:12;42.63;;;26.35;;
38783;SDS011;24531;45.502;12.238;2023-01-19T01:11:38;39.08;;;25.02;;
38783;SDS011;24531;45.502;12.238;2023-01-19T01:14:04;37.33;;;23.40;;
38783;SDS011;24531;45.502;12.238;2023-01-19T01:16:30;38.05;;;23.52;;
38783;SDS011;24531;45.502;12.238;2023-01-19T01:18:56;39.63;;;24.85;;
38783;SDS011;24531;45.502;12.238;2023-01-19T01:21:21;34.92;;;22.63;;
38783;SDS011;24531;45.502;12.238;2023-01-19T01:23:47;37.22;;;23.45;;
38783;SDS011;24531;45.502;12.238;2023-01-19T01:26:13;37.50;;;24.33;;
38783;SDS011;24531;45.502;12.238;2023-01-19T01:28:38;36.10;;;23.35;;
38783;SDS011;24531;45.502;12.238;2023-01-19T01:31:04;39.58;;;24.15;;
38783;SDS011;24531;45.502;12.238;2023-01-19T01:33:29;40.80;;;24.48;;
38783;SDS011;24531;45.502;12.238;2023-01-19T01:35:55;38.80;;;24.00;;
38783;SDS011;24531;45.502;12.238;2023-01-19T01:38:21;38.15;;;25.15;;
38783;SDS011;24531;45.502;12.238;2023-01-19T01:40:46;44.72;;;25.75;;
38783;SDS011;24531;45.502;12.238;2023-01-19T01:43:13;37.45;;;22.73;;
38783;SDS011;24531;45.502;12.238;2023-01-19T01:45:40;39.97;;;24.48;;
38783;SDS011;24531;45.502;12.238;2023-01-19T01:48:07;41.83;;;25.00;;
38783;SDS011;24531;45.502;12.238;2023-01-19T01:51:05;36.53;;;22.98;;
38783;SDS011;24531;45.502;12.238;2023-01-19T01:53:51;36.08;;;23.58;;
38783;SDS011;24531;45.502;12.238;2023-01-19T01:56:23;42.65;;;24.83;;
38783;SDS011;24531;45.502;12.238;2023-01-19T01:58:55;39.75;;;25.20;;
38783;SDS011;24531;45.502;12.238;2023-01-19T02:01:21;36.70;;;23.83;;
38783;SDS011;24531;45.502;12.238;2023-01-19T02:04:05;39.90;;;24.58;;
38783;SDS011;24531;45.502;12.238;2023-01-19T02:06:31;36.97;;;24.40;;
38783;SDS011;24531;45.502;12.238;2023-01-19T02:09:05;42.80;;;25.27;;
38783;SDS011;24531;45.502;12.238;2023-01-19T02:11:53;40.20;;;24.42;;
38783;SDS011;24531;45.502;12.238;2023-01-19T02:14:37;38.15;;;23.13;;
38783;SDS011;24531;45.502;12.238;2023-01-19T02:17:03;40.92;;;25.00;;
38783;SDS011;24531;45.502;12.238;2023-01-19T02:19:32;37.35;;;24.55;;
38783;SDS011;24531;45.502;12.238;2023-01-19T02:22:11;37.65;;;25.13;;
38783;SDS011;24531;45.502;12.238;2023-01-19T02:24:38;39.40;;;24.85;;
38783;SDS011;24531;45.502;12.238;2023-01-19T02:27:04;38.15;;;24.73;;
38783;SDS011;24531;45.502;12.238;2023-01-19T02:29:31;38.75;;;23.92;;
38783;SDS011;24531;45.502;12.238;2023-01-19T02:31:58;36.65;;;23.40;;
38783;SDS011;24531;45.502;12.238;2023-01-19T02:34:26;39.13;;;25.08;;
38783;SDS011;24531;45.502;12.238;2023-01-19T02:36:53;36.85;;;23.80;;
38783;SDS011;24531;45.502;12.238;2023-01-19T02:39:44;42.22;;;23.52;;
38783;SDS011;24531;45.502;12.238;2023-01-19T02:45:00;26.30;;;16.33;;
38783;SDS011;24531;45.502;12.238;2023-01-19T02:48:04;35.05;;;23.27;;
38783;SDS011;24531;45.502;12.238;2023-01-19T02:53:07;36.08;;;23.30;;
38783;SDS011;24531;45.502;12.238;2023-01-19T02:55:44;37.97;;;23.40;;
38783;SDS011;24531;45.502;12.238;2023-01-19T02:58:21;35.15;;;22.50;;
38783;SDS011;24531;45.502;12.238;2023-01-19T03:01:18;38.72;;;23.77;;
38783;SDS011;24531;45.502;12.238;2023-01-19T03:09:42;35.95;;;22.50;;
38783;SDS011;24531;45.502;12.238;2023-01-19T03:14:41;36.22;;;22.42;;
38783;SDS011;24531;45.502;12.238;2023-01-19T03:17:10;37.78;;;24.38;;
38783;SDS011;24531;45.502;12.238;2023-01-19T03:19:39;37.63;;;23.67;;
38783;SDS011;24531;45.502;12.238;2023-01-19T03:22:10;38.85;;;25.23;;
38783;SDS011;24531;45.502;12.238;2023-01-19T03:24:43;42.38;;;23.33;;
38783;SDS011;24531;45.502;12.238;2023-01-19T03:27:31;40.97;;;24.52;;
38783;SDS011;24531;45.502;12.238;2023-01-19T03:30:08;36.33;;;24.42;;
38783;SDS011;24531;45.502;12.238;2023-01-19T03:32:40;44.35;;;24.52;;
38783;SDS011;24531;45.502;12.238;2023-01-19T03:35:11;39.22;;;22.70;;
38783;SDS011;24531;45.502;12.238;2023-01-19T03:37:41;34.05;;;23.17;;
38783;SDS011;24531;45.502;12.238;2023-01-19T03:40:09;38.25;;;23.83;;
38783;SDS011;24531;45.502;12.238;2023-01-19T03:42:35;38.22;;;22.05;;
38783;SDS011;24531;45.502;12.238;2023-01-19T03:45:02;36.22;;;22.98;;
38783;SDS011;24531;45.502;12.238;2023-01-19T03:47:29;38.15;;;23.95;;
38783;SDS011;24531;45.502;12.238;2023-01-19T03:49:55;38.00;;;23.00;;
38783;SDS011;24531;45.502;12.238;2023-01-19T03:52:26;38.42;;;23.25;;
38783;SDS011;24531;45.502;12.238;2023-01-19T03:54:53;35.15;;;23.45;;
38783;SDS011;24531;45.502;12.238;2023-01-19T03:57:19;34.85;;;22.50;;
38783;SDS011;24531;45.502;12.238;2023-01-19T03:59:45;34.40;;;23.48;;
38783;SDS011;24531;45.502;12.238;2023-01-19T04:02:10;35.70;;;21.92;;
38783;SDS011;24531;45.502;12.238;2023-01-19T04:04:36;31.52;;;20.65;;
38783;SDS011;24531;45.502;12.238;2023-01-19T04:07:02;30.90;;;20.90;;
38783;SDS011;24531;45.502;12.238;2023-01-19T04:09:27;33.78;;;22.75;;
38783;SDS011;24531;45.502;12.238;2023-01-19T04:11:53;35.10;;;21.67;;
38783;SDS011;24531;45.502;12.238;2023-01-19T04:14:19;33.55;;;22.00;;
38783;SDS011;24531;45.502;12.238;2023-01-19T04:16:45;34.58;;;21.88;;
38783;SDS011;24531;45.502;12.238;2023-01-19T04:19:11;33.80;;;21.63;;
38783;SDS011;24531;45.502;12.238;2023-01-19T04:21:36;34.03;;;21.15;;
38783;SDS011;24531;45.502;12.238;2023-01-19T04:24:02;34.10;;;20.92;;
38783;SDS011;24531;45.502;12.238;2023-01-19T04:26:27;30.67;;;21.05;;
38783;SDS011;24531;45.502;12.238;2023-01-19T04:28:53;34.63;;;21.88;;
38783;SDS011;24531;45.502;12.238;2023-01-19T04:31:19;32.35;;;20.55;;
38783;SDS011;24531;45.502;12.238;2023-01-19T04:33:44;31.33;;;20.67;;
38783;SDS011;24531;45.502;12.238;2023-01-19T04:36:10;30.95;;;19.92;;
38783;SDS011;24531;45.502;12.238;2023-01-19T04:38:36;28.30;;;18.45;;
38783;SDS011;24531;45.502;12.238;2023-01-19T04:41:02;27.95;;;16.92;;
38783;SDS011;24531;45.502;12.238;2023-01-19T04:43:28;25.73;;;16.05;;
38783;SDS011;24531;45.502;12.238;2023-01-19T04:45:53;24.45;;;15.25;;
38783;SDS011;24531;45.502;12.238;2023-01-19T04:48:19;22.20;;;14.43;;
38783;SDS011;24531;45.502;12.238;2023-01-19T04:50:45;20.27;;;13.63;;
38783;SDS011;24531;45.502;12.238;2023-01-19T04:53:11;17.98;;;11.88;;
38783;SDS011;24531;45.502;12.238;2023-01-19T04:55:37;18.08;;;11.63;;
38783;SDS011;24531;45.502;12.238;2023-01-19T04:58:03;15.43;;;10.13;;
38783;SDS011;24531;45.502;12.238;2023-01-19T05:00:29;14.68;;;9.63;;
38783;SDS011;24531;45.502;12.238;2023-01-19T05:02:56;15.15;;;10.20;;
38783;SDS011;24531;45.502;12.238;2023-01-19T05:05:21;15.73;;;8.68;;
38783;SDS011;24531;45.502;12.238;2023-01-19T05:07:47;12.70;;;8.32;;
38783;SDS011;24531;45.502;12.238;2023-01-19T05:10:12;11.13;;;7.70;;
38783;SDS011;24531;45.502;12.238;2023-01-19T05:12:38;10.90;;;7.35;;
38783;SDS011;24531;45.502;12.238;2023-01-19T05:15:04;11.52;;;7.15;;
38783;SDS011;24531;45.502;12.238;2023-01-19T05:17:31;8.68;;;6.45;;
38783;SDS011;24531;45.502;12.238;2023-01-19T05:19:57;9.98;;;5.72;;
38783;SDS011;24531;45.502;12.238;2023-01-19T05:22:23;9.20;;;6.63;;
38783;SDS011;24531;45.502;12.238;2023-01-19T05:24:48;10.40;;;6.63;;
38783;SDS011;24531;45.502;12.238;2023-01-19T05:27:14;10.02;;;5.93;;
38783;SDS011;24531;45.502;12.238;2023-01-19T05:29:39;8.52;;;5.22;;
38783;SDS011;24531;45.502;12.238;2023-01-19T05:32:05;5.60;;;4.28;;
38783;SDS011;24531;45.502;12.238;2023-01-19T05:34:30;6.20;;;4.57;;
38783;SDS011;24531;45.502;12.238;2023-01-19T05:36:56;6.75;;;4.40;;
38783;SDS011;24531;45.502;12.238;2023-01-19T05:39:22;5.15;;;4.05;;
38783;SDS011;24531;45.502;12.238;2023-01-19T05:41:47;5.35;;;3.50;;
38783;SDS011;24531;45.502;12.238;2023-01-19T05:44:13;6.25;;;3.45;;
38783;SDS011;24531;45.502;12.238;2023-01-19T05:46:39;4.25;;;2.88;;
38783;SDS011;24531;45.502;12.238;2023-01-19T05:49:05;4.00;;;1.92;;
38783;SDS011;24531;45.502;12.238;2023-01-19T05:51:31;2.40;;;1.70;;
38783;SDS011;24531;45.502;12.238;2023-01-19T05:54:05;4.47;;;2.17;;
38783;SDS011;24531;45.502;12.238;2023-01-19T05:56:31;2.05;;;1.35;;
38783;SDS011;24531;45.502;12.238;2023-01-19T05:58:58;1.85;;;0.93;;
38783;SDS011;24531;45.502;12.238;2023-01-19T06:01:24;1.58;;;0.70;;
38783;SDS011;24531;45.502;12.238;2023-01-19T06:03:50;1.27;;;0.70;;
38783;SDS011;24531;45.502;12.238;2023-01-19T06:06:16;0.52;;;0.50;;
38783;SDS011;24531;45.502;12.238;2023-01-19T06:08:42;0.50;;;0.43;;
38783;SDS011;24531;45.502;12.238;2023-01-19T06:11:08;0.60;;;0.60;;
38783;SDS011;24531;45.502;12.238;2023-01-19T06:13:34;0.40;;;0.40;;
38783;SDS011;24531;45.502;12.238;2023-01-19T06:16:00;1.17;;;0.75;;
38783;SDS011;24531;45.502;12.238;2023-01-19T06:18:27;1.15;;;0.63;;
38783;SDS011;24531;45.502;12.238;2023-01-19T06:20:54;0.10;;;0.10;;
38783;SDS011;24531;45.502;12.238;2023-01-19T06:23:32;0.30;;;0.30;;
38783;SDS011;24531;45.502;12.238;2023-01-19T06:25:58;0.30;;;0.30;;
38783;SDS011;24531;45.502;12.238;2023-01-19T06:28:24;0.32;;;0.30;;
38783;SDS011;24531;45.502;12.238;2023-01-19T06:30:50;0.80;;;0.50;;
38783;SDS011;24531;45.502;12.238;2023-01-19T06:33:17;0.25;;;0.25;;
38783;SDS011;24531;45.502;12.238;2023-01-19T06:35:47;1.75;;;0.47;;
38783;SDS011;24531;45.502;12.238;2023-01-19T06:38:14;1.33;;;0.60;;
38783;SDS011;24531;45.502;12.238;2023-01-19T06:40:42;0.50;;;0.40;;
38783;SDS011;24531;45.502;12.238;2023-01-19T06:43:09;0.60;;;0.60;;
38783;SDS011;24531;45.502;12.238;2023-01-19T06:45:35;1.88;;;0.60;;
38783;SDS011;24531;45.502;12.238;2023-01-19T06:48:02;2.20;;;0.60;;
38783;SDS011;24531;45.502;12.238;2023-01-19T06:50:28;0.38;;;0.38;;
38783;SDS011;24531;45.502;12.238;2023-01-19T06:52:54;1.35;;;0.60;;
38783;SDS011;24531;45.502;12.238;2023-01-19T06:55:19;0.73;;;0.50;;
38783;SDS011;24531;45.502;12.238;2023-01-19T06:57:45;1.42;;;0.80;;
38783;SDS011;24531;45.502;12.238;2023-01-19T07:00:11;1.02;;;0.70;;
38783;SDS011;24531;45.502;12.238;2023-01-19T07:02:40;1.08;;;0.73;;
38783;SDS011;24531;45.502;12.238;2023-01-19T07:05:08;0.60;;;0.50;;
38783;SDS011;24531;45.502;12.238;2023-01-19T07:07:34;1.48;;;0.50;;
38783;SDS011;24531;45.502;12.238;2023-01-19T07:10:03;0.38;;;0.20;;
38783;SDS011;24531;45.502;12.238;2023-01-19T07:12:33;0.75;;;0.50;;
38783;SDS011;24531;45.502;12.238;2023-01-19T07:14:59;1.08;;;0.65;;
38783;SDS011;24531;45.502;12.238;2023-01-19T07:17:25;0.70;;;0.45;;
38783;SDS011;24531;45.502;12.238;2023-01-19T07:19:50;1.05;;;0.60;;
38783;SDS011;24531;45.502;12.238;2023-01-19T07:22:16;1.55;;;0.65;;
38783;SDS011;24531;45.502;12.238;2023-01-19T07:24:42;2.22;;;0.60;;
38783;SDS011;24531;45.502;12.238;2023-01-19T07:27:07;2.13;;;0.63;;
38783;SDS011;24531;45.502;12.238;2023-01-19T07:29:35;0.65;;;0.50;;
38783;SDS011;24531;45.502;12.238;2023-01-19T07:32:01;1.15;;;0.57;;
38783;SDS011;24531;45.502;12.238;2023-01-19T07:34:27;0.73;;;0.60;;
38783;SDS011;24531;45.502;12.238;2023-01-19T07:36:54;2.13;;;0.50;;
38783;SDS011;24531;45.502;12.238;2023-01-19T07:39:19;0.93;;;0.68;;
38783;SDS011;24531;45.502;12.238;2023-01-19T07:41:46;0.60;;;0.55;;
38783;SDS011;24531;45.502;12.238;2023-01-19T07:44:12;1.02;;;0.75;;
38783;SDS011;24531;45.502;12.238;2023-01-19T07:46:38;0.70;;;0.60;;
38783;SDS011;24531;45.502;12.238;2023-01-19T07:49:04;1.45;;;0.90;;
38783;SDS011;24531;45.502;12.238;2023-01-19T07:51:30;1.67;;;0.93;;
38783;SDS011;24531;45.502;12.238;2023-01-19T07:53:56;1.77;;;0.98;;
38783;SDS011;24531;45.502;12.238;2023-01-19T07:56:22;1.92;;;0.85;;
38783;SDS011;24531;45.502;12.238;2023-01-19T07:58:48;1.10;;;0.70;;
38783;SDS011;24531;45.502;12.238;2023-01-19T08:01:16;1.33;;;0.95;;
38783;SDS011;24531;45.502;12.238;2023-01-19T08:03:42;1.55;;;0.90;;
38783;SDS011;24531;45.502;12.238;2023-01-19T08:06:15;1.45;;;0.85;;
38783;SDS011;24531;45.502;12.238;2023-01-19T08:08:45;2.58;;;1.17;;
38783;SDS011;24531;45.502;12.238;2023-01-19T08:11:11;0.80;;;0.70;;
38783;SDS011;24531;45.502;12.238;2023-01-19T08:13:36;1.63;;;0.77;;
38783;SDS011;24531;45.502;12.238;2023-01-19T08:16:02;0.82;;;0.80;;
38783;SDS011;24531;45.502;12.238;2023-01-19T08:18:28;1.65;;;0.95;;
38783;SDS011;24531;45.502;12.238;2023-01-19T08:20:54;1.85;;;0.90;;
38783;SDS011;24531;45.502;12.238;2023-01-19T08:23:22;1.15;;;0.70;;
38783;SDS011;24531;45.502;12.238;2023-01-19T08:25:47;1.02;;;0.82;;
38783;SDS011;24531;45.502;12.238;2023-01-19T08:28:13;1.30;;;0.80;;
38783;SDS011;24531;45.502;12.238;2023-01-19T08:30:40;0.82;;;0.70;;
38783;SDS011;24531;45.502;12.238;2023-01-19T08:33:08;1.38;;;0.90;;
38783;SDS011;24531;45.502;12.238;2023-01-19T08:35:38;1.10;;;0.80;;
38783;SDS011;24531;45.502;12.238;2023-01-19T08:38:05;0.95;;;0.60;;
38783;SDS011;24531;45.502;12.238;2023-01-19T08:40:34;1.10;;;1.00;;
38783;SDS011;24531;45.502;12.238;2023-01-19T08:43:06;1.15;;;0.85;;
38783;SDS011;24531;45.502;12.238;2023-01-19T08:45:33;1.73;;;0.80;;
38783;SDS011;24531;45.502;12.238;2023-01-19T08:48:00;1.10;;;0.73;;
38783;SDS011;24531;45.502;12.238;2023-01-19T08:50:26;1.15;;;0.90;;
38783;SDS011;24531;45.502;12.238;2023-01-19T08:52:59;1.00;;;0.70;;
38783;SDS011;24531;45.502;12.238;2023-01-19T08:55:27;1.10;;;1.00;;
38783;SDS011;24531;45.502;12.238;2023-01-19T08:57:53;1.10;;;1.00;;
38783;SDS011;24531;45.502;12.238;2023-01-19T09:00:24;2.90;;;0.77;;
38783;SDS011;24531;45.502;12.238;2023-01-19T09:02:51;1.15;;;0.80;;
38783;SDS011;24531;45.502;12.238;2023-01-19T09:05:17;1.13;;;0.77;;
38783;SDS011;24531;45.502;12.238;2023-01-19T09:07:43;1.52;;;1.25;;
38783;SDS011;24531;45.502;12.238;2023-01-19T09:10:11;0.82;;;0.55;;
38783;SDS011;24531;45.502;12.238;2023-01-19T09:12:37;1.40;;;0.85;;
38783;SDS011;24531;45.502;12.238;2023-01-19T09:15:03;1.10;;;0.80;;
38783;SDS011;24531;45.502;12.238;2023-01-19T09:17:29;1.63;;;0.88;;
38783;SDS011;24531;45.502;12.238;2023-01-19T09:19:55;0.80;;;0.77;;
38783;SDS011;24531;45.502;12.238;2023-01-19T09:22:20;1.15;;;0.80;;
38783;SDS011;24531;45.502;12.238;2023-01-19T09:24:46;0.85;;;0.60;;
38783;SDS011;24531;45.502;12.238;2023-01-19T09:27:11;0.85;;;0.60;;
38783;SDS011;24531;45.502;12.238;2023-01-19T09:29:37;1.58;;;0.70;;
38783;SDS011;24531;45.502;12.238;2023-01-19T09:32:02;0.80;;;0.80;;
38783;SDS011;24531;45.502;12.238;2023-01-19T09:34:28;1.20;;;0.70;;
38783;SDS011;24531;45.502;12.238;2023-01-19T09:36:55;1.25;;;0.90;;
38783;SDS011;24531;45.502;12.238;2023-01-19T09:39:21;0.93;;;0.50;;
38783;SDS011;24531;45.502;12.238;2023-01-19T09:41:50;0.70;;;0.40;;
38783;SDS011;24531;45.502;12.238;2023-01-19T09:44:27;0.90;;;0.60;;
38783;SDS011;24531;45.502;12.238;2023-01-19T09:46:56;0.93;;;0.90;;
38783;SDS011;24531;45.502;12.238;2023-01-19T09:49:26;3.33;;;0.60;;
38783;SDS011;24531;45.502;12.238;2023-01-19T09:52:00;0.93;;;0.82;;
38783;SDS011;24531;45.502;12.238;2023-01-19T09:54:28;1.10;;;0.70;;
38783;SDS011;24531;45.502;12.238;2023-01-19T09:57:12;1.23;;;0.50;;
38783;SDS011;24531;45.502;12.238;2023-01-19T09:59:38;1.65;;;0.50;;
38783;SDS011;24531;45.502;12.238;2023-01-19T10:10:21;0.40;;;0.40;;
38783;SDS011;24531;45.502;12.238;2023-01-19T10:15:44;1.20;;;0.93;;
38783;SDS011;24531;45.502;12.238;2023-01-19T10:18:24;0.80;;;0.70;;
38783;SDS011;24531;45.502;12.238;2023-01-19T10:26:17;0.80;;;0.60;;
38783;SDS011;24531;45.502;12.238;2023-01-19T10:29:00;1.05;;;0.80;;
38783;SDS011;24531;45.502;12.238;2023-01-19T10:31:30;1.08;;;0.80;;
38783;SDS011;24531;45.502;12.238;2023-01-19T10:33:57;2.13;;;0.88;;
38783;SDS011;24531;45.502;12.238;2023-01-19T10:36:34;0.88;;;0.50;;
38783;SDS011;24531;45.502;12.238;2023-01-19T10:39:05;0.52;;;0.38;;
38783;SDS011;24531;45.502;12.238;2023-01-19T10:41:41;1.15;;;0.45;;
38783;SDS011;24531;45.502;12.238;2023-01-19T10:44:14;0.30;;;0.30;;
38783;SDS011;24531;45.502;12.238;2023-01-19T10:46:54;0.65;;;0.52;;
38783;SDS011;24531;45.502;12.238;2023-01-19T10:49:55;1.88;;;0.47;;
38783;SDS011;24531;45.502;12.238;2023-01-19T10:52:34;1.25;;;0.50;;
38783;SDS011;24531;45.502;12.238;2023-01-19T10:55:01;0.30;;;0.30;;
38783;SDS011;24531;45.502;12.238;2023-01-19T10:57:35;0.35;;;0.30;;
38783;SDS011;24531;45.502;12.238;2023-01-19T11:00:05;0.32;;;0.30;;
38783;SDS011;24531;45.502;12.238;2023-01-19T11:02:51;0.73;;;0.20;;
38783;SDS011;24531;45.502;12.238;2023-01-19T11:05:20;1.13;;;0.47;;
38783;SDS011;24531;45.502;12.238;2023-01-19T11:07:50;0.60;;;0.20;;
38783;SDS011;24531;45.502;12.238;2023-01-19T11:12:45;0.20;;;0.20;;
38783;SDS011;24531;45.502;12.238;2023-01-19T11:15:27;0.35;;;0.35;;
38783;SDS011;24531;45.502;12.238;2023-01-19T11:17:55;1.23;;;0.73;;
38783;SDS011;24531;45.502;12.238;2023-01-19T11:20:23;2.75;;;0.77;;
38783;SDS011;24531;45.502;12.238;2023-01-19T11:23:09;1.42;;;0.90;;
38783;SDS011;24531;45.502;12.238;2023-01-19T11:25:49;1.08;;;0.63;;
38783;SDS011;24531;45.502;12.238;2023-01-19T11:28:19;0.40;;;0.40;;
38783;SDS011;24531;45.502;12.238;2023-01-19T11:33:33;1.75;;;0.88;;
38783;SDS011;24531;45.502;12.238;2023-01-19T11:36:05;0.90;;;0.73;;
38783;SDS011;24531;45.502;12.238;2023-01-19T11:38:40;1.60;;;0.73;;
38783;SDS011;24531;45.502;12.238;2023-01-19T11:41:07;1.30;;;0.85;;
38783;SDS011;24531;45.502;12.238;2023-01-19T11:43:43;1.17;;;0.60;;
38783;SDS011;24531;45.502;12.238;2023-01-19T11:46:10;1.95;;;1.20;;
38783;SDS011;24531;45.502;12.238;2023-01-19T11:48:41;0.98;;;0.50;;
38783;SDS011;24531;45.502;12.238;2023-01-19T11:51:13;1.08;;;0.50;;
38783;SDS011;24531;45.502;12.238;2023-01-19T11:53:40;1.45;;;0.88;;
38783;SDS011;24531;45.502;12.238;2023-01-19T11:56:09;4.13;;;0.80;;
38783;SDS011;24531;45.502;12.238;2023-01-19T11:58:38;0.50;;;0.50;;
38783;SDS011;24531;45.502;12.238;2023-01-19T12:01:24;0.70;;;0.70;;
38783;SDS011;24531;45.502;12.238;2023-01-19T12:04:05;1.20;;;1.10;;
38783;SDS011;24531;45.502;12.238;2023-01-19T12:06:48;1.63;;;1.30;;
38783;SDS011;24531;45.502;12.238;2023-01-19T12:09:49;3.08;;;1.55;;
38783;SDS011;24531;45.502;12.238;2023-01-19T12:12:11;1.77;;;1.20;;
38783;SDS011;24531;45.502;12.238;2023-01-19T12:17:47;1.25;;;1.08;;
38783;SDS011;24531;45.502;12.238;2023-01-19T12:25:45;1.83;;;1.20;;
38783;SDS011;24531;45.502;12.238;2023-01-19T12:28:39;2.10;;;1.40;;
38783;SDS011;24531;45.502;12.238;2023-01-19T12:31:12;1.85;;;1.38;;
38783;SDS011;24531;45.502;12.238;2023-01-19T12:33:40;3.40;;;1.20;;
38783;SDS011;24531;45.502;12.238;2023-01-19T12:38:52;2.63;;;1.20;;
38783;SDS011;24531;45.502;12.238;2023-01-19T12:46:40;2.33;;;1.30;;
38783;SDS011;24531;45.502;12.238;2023-01-19T12:49:10;2.10;;;1.27;;
38783;SDS011;24531;45.502;12.238;2023-01-19T12:51:41;1.25;;;0.88;;
38783;SDS011;24531;45.502;12.238;2023-01-19T12:54:07;1.92;;;1.17;;
38783;SDS011;24531;45.502;12.238;2023-01-19T12:59:22;1.85;;;0.90;;
38783;SDS011;24531;45.502;12.238;2023-01-19T13:13:24;4.97;;;1.40;;
38783;SDS011;24531;45.502;12.238;2023-01-19T13:15:52;3.22;;;1.42;;
38783;SDS011;24531;45.502;12.238;2023-01-19T13:18:23;2.92;;;1.98;;
38783;SDS011;24531;45.502;12.238;2023-01-19T13:20:56;2.72;;;1.83;;
38783;SDS011;24531;45.502;12.238;2023-01-19T13:23:50;4.25;;;2.30;;
38783;SDS011;24531;45.502;12.238;2023-01-19T13:26:20;4.35;;;2.42;;
38783;SDS011;24531;45.502;12.238;2023-01-19T13:28:57;2.35;;;1.52;;
38783;SDS011;24531;45.502;12.238;2023-01-19T13:31:34;2.28;;;1.55;;
38783;SDS011;24531;45.502;12.238;2023-01-19T13:34:01;1.90;;;1.10;;
38783;SDS011;24531;45.502;12.238;2023-01-19T13:36:34;3.08;;;1.50;;
38783;SDS011;24531;45.502;12.238;2023-01-19T13:39:03;2.63;;;1.63;;
38783;SDS011;24531;45.502;12.238;2023-01-19T13:41:33;2.67;;;1.50;;
38783;SDS011;24531;45.502;12.238;2023-01-19T13:44:44;2.58;;;1.00;;
38783;SDS011;24531;45.502;12.238;2023-01-19T13:46:52;1.60;;;1.38;;
38783;SDS011;24531;45.502;12.238;2023-01-19T13:49:20;2.92;;;1.40;;
38783;SDS011;24531;45.502;12.238;2023-01-19T13:52:02;2.78;;;1.30;;
38783;SDS011;24531;45.502;12.238;2023-01-19T13:54:28;2.35;;;1.20;;
38783;SDS011;24531;45.502;12.238;2023-01-19T13:56:54;1.80;;;1.58;;
38783;SDS011;24531;45.502;12.238;2023-01-19T13:59:20;2.75;;;1.80;;
38783;SDS011;24531;45.502;12.238;2023-01-19T14:01:45;1.40;;;1.25;;
38783;SDS011;24531;45.502;12.238;2023-01-19T14:04:28;1.85;;;1.40;;
38783;SDS011;24531;45.502;12.238;2023-01-19T14:06:56;1.60;;;1.50;;
38783;SDS011;24531;45.502;12.238;2023-01-19T14:09:25;1.92;;;1.60;;
38783;SDS011;24531;45.502;12.238;2023-01-19T14:14:37;1.48;;;1.30;;
38783;SDS011;24531;45.502;12.238;2023-01-19T14:17:05;1.88;;;1.13;;
38783;SDS011;24531;45.502;12.238;2023-01-19T14:19:51;2.08;;;1.30;;
38783;SDS011;24531;45.502;12.238;2023-01-19T14:22:19;1.80;;;1.25;;
38783;SDS011;24531;45.502;12.238;2023-01-19T14:24:45;1.70;;;1.20;;
38783;SDS011;24531;45.502;12.238;2023-01-19T14:27:17;1.63;;;1.25;;
38783;SDS011;24531;45.502;12.238;2023-01-19T14:29:46;1.20;;;0.90;;
38783;SDS011;24531;45.502;12.238;2023-01-19T14:34:48;1.73;;;1.15;;
38783;SDS011;24531;45.502;12.238;2023-01-19T14:39:55;1.70;;;1.30;;
38783;SDS011;24531;45.502;12.238;2023-01-19T14:44:51;1.20;;;0.88;;
38783;SDS011;24531;45.502;12.238;2023-01-19T14:47:37;3.75;;;1.20;;
38783;SDS011;24531;45.502;12.238;2023-01-19T14:50:06;1.73;;;1.00;;
38783;SDS011;24531;45.502;12.238;2023-01-19T14:52:42;1.88;;;1.38;;
38783;SDS011;24531;45.502;12.238;2023-01-19T14:55:17;1.23;;;0.93;;
38783;SDS011;24531;45.502;12.238;2023-01-19T14:57:45;1.10;;;0.90;;
38783;SDS011;24531;45.502;12.238;2023-01-19T15:00:13;1.40;;;0.98;;
38783;SDS011;24531;45.502;12.238;2023-01-19T15:02:41;1.80;;;1.30;;
38783;SDS011;24531;45.502;12.238;2023-01-19T15:05:07;1.60;;;1.10;;
38783;SDS011;24531;45.502;12.238;2023-01-19T15:07:33;2.10;;;1.67;;
38783;SDS011;24531;45.502;12.238;2023-01-19T15:10:02;2.10;;;1.20;;
38783;SDS011;24531;45.502;12.238;2023-01-19T15:12:28;1.13;;;1.02;;
38783;SDS011;24531;45.502;12.238;2023-01-19T15:14:54;1.60;;;1.20;;
38783;SDS011;24531;45.502;12.238;2023-01-19T15:17:20;2.38;;;1.30;;
38783;SDS011;24531;45.502;12.238;2023-01-19T15:19:53;1.42;;;1.20;;
38783;SDS011;24531;45.502;12.238;2023-01-19T15:22:20;3.15;;;1.42;;
38783;SDS011;24531;45.502;12.238;2023-01-19T15:24:47;1.50;;;1.23;;
38783;SDS011;24531;45.502;12.238;2023-01-19T15:27:13;1.38;;;1.27;;
38783;SDS011;24531;45.502;12.238;2023-01-19T15:29:40;2.13;;;1.67;;
38783;SDS011;24531;45.502;12.238;2023-01-19T15:32:10;2.13;;;1.25;;
38783;SDS011;24531;45.502;12.238;2023-01-19T15:34:37;2.70;;;1.65;;
38783;SDS011;24531;45.502;12.238;2023-01-19T15:37:02;2.05;;;1.30;;
38783;SDS011;24531;45.502;12.238;2023-01-19T15:39:28;2.53;;;1.80;;
38783;SDS011;24531;45.502;12.238;2023-01-19T15:41:54;2.20;;;1.58;;
38783;SDS011;24531;45.502;12.238;2023-01-19T15:44:19;3.17;;;1.67;;
38783;SDS011;24531;45.502;12.238;2023-01-19T15:46:45;2.65;;;1.98;;
38783;SDS011;24531;45.502;12.238;2023-01-19T15:49:11;3.72;;;1.60;;
38783;SDS011;24531;45.502;12.238;2023-01-19T15:51:36;1.83;;;1.50;;
38783;SDS011;24531;45.502;12.238;2023-01-19T15:54:02;3.03;;;2.00;;